Time;durP1;ratioP1;P1;durP2;ratioP2;P2;SDS_P1;SDS_P2;PMS_P1;PMS_P2;Temp;Humidity;BMP_temperature;BMP_pressure;BME280_temperature;BME280_humidity;BME280_pressure;Samples;Min_cycle;Max_cycle;Signal;HPM_P1;HPM_P2
2022/05/07 00:01:27;;;;;;;17.45;7.85;;;14.60;99.90;;;;;;5054821;28;20426;-62
2022/05/07 00:03:53;;;;;;;18.95;8.20;;;14.60;99.90;;;;;;5054767;28;20029;-61
2022/05/07 00:06:18;;;;;;;18.13;7.25;;;14.50;99.90;;;;;;5055187;28;20040;-62
2022/05/07 00:08:44;;;;;;;17.27;7.85;;;14.50;99.90;;;;;;5054639;28;20044;-61
2022/05/07 00:11:10;;;;;;;15.18;7.00;;;14.40;99.90;;;;;;5055248;28;20033;-65
2022/05/07 00:13:35;;;;;;;14.48;6.40;;;14.40;99.90;;;;;;5054992;28;20024;-64
2022/05/07 00:18:45;;;;;;;15.88;5.80;;;14.20;99.90;;;;;;5054442;28;20040;-62
2022/05/07 00:21:10;;;;;;;14.95;6.15;;;14.10;99.90;;;;;;5054860;28;20025;-62
2022/05/07 00:23:37;;;;;;;14.77;5.63;;;14.10;99.90;;;;;;5054898;28;20029;-62
2022/05/07 00:26:03;;;;;;;9.93;4.78;;;14.00;99.90;;;;;;5054659;28;20017;-62
2022/05/07 00:28:30;;;;;;;12.00;5.25;;;14.00;99.90;;;;;;5053088;28;20099;-61
2022/05/07 00:30:55;;;;;;;10.48;5.35;;;14.00;99.90;;;;;;5054822;28;20027;-62
2022/05/07 00:33:21;;;;;;;13.55;5.32;;;14.00;99.90;;;;;;5054636;28;20391;-62
2022/05/07 00:35:47;;;;;;;13.60;5.68;;;14.00;99.90;;;;;;5053260;28;20142;-62
2022/05/07 00:38:12;;;;;;;12.60;5.10;;;14.00;99.90;;;;;;5054568;28;20061;-62
2022/05/07 00:40:38;;;;;;;15.13;6.35;;;13.90;99.90;;;;;;5054460;28;20025;-61
2022/05/07 00:43:03;;;;;;;16.98;6.90;;;13.90;99.90;;;;;;5053109;28;20021;-62
2022/05/07 00:45:29;;;;;;;14.63;5.32;;;13.80;99.90;;;;;;5054434;28;20028;-61
2022/05/07 00:47:54;;;;;;;13.63;5.15;;;13.80;99.90;;;;;;5053872;28;20025;-62
2022/05/07 00:53:05;;;;;;;16.23;4.93;;;13.70;99.90;;;;;;5054646;28;20055;-63
2022/05/07 00:55:32;;;;;;;16.95;5.55;;;13.70;99.90;;;;;;5054027;28;20056;-62
2022/05/07 00:57:58;;;;;;;15.25;5.63;;;13.60;99.90;;;;;;5054222;28;20263;-62
2022/05/07 01:00:24;;;;;;;18.77;5.45;;;13.60;99.90;;;;;;5053891;28;20503;-62
2022/05/07 01:02:50;;;;;;;17.67;5.88;;;13.60;99.90;;;;;;5053938;28;20021;-61
2022/05/07 01:05:15;;;;;;;13.88;4.93;;;13.50;99.90;;;;;;5053501;28;20036;-65
2022/05/07 01:07:43;;;;;;;19.90;5.78;;;13.50;99.90;;;;;;5053682;28;20083;-65
2022/05/07 01:10:09;;;;;;;12.45;5.20;;;13.50;99.90;;;;;;5053499;28;20064;-61
2022/05/07 01:12:35;;;;;;;19.65;5.32;;;13.50;99.90;;;;;;5053783;28;20063;-62
2022/05/07 01:15:01;;;;;;;17.77;5.57;;;13.50;99.90;;;;;;5053270;28;20017;-65
2022/05/07 01:17:26;;;;;;;17.98;5.72;;;13.40;99.90;;;;;;5053614;28;20032;-62
2022/05/07 01:19:53;;;;;;;17.10;6.10;;;13.40;99.90;;;;;;5053270;28;20488;-62
2022/05/07 01:22:20;;;;;;;18.48;6.60;;;13.40;99.90;;;;;;5068056;28;20059;-63
2022/05/07 01:24:45;;;;;;;20.92;6.22;;;13.40;99.90;;;;;;5073609;28;20575;-62
2022/05/07 01:27:11;;;;;;;16.35;5.88;;;13.40;99.90;;;;;;5073199;28;20127;-62
2022/05/07 01:29:37;;;;;;;18.80;6.07;;;13.40;99.90;;;;;;5073190;28;20384;-63
2022/05/07 01:32:02;;;;;;;19.23;6.07;;;13.40;99.90;;;;;;5073292;28;20365;-61
2022/05/07 01:34:28;;;;;;;22.13;6.88;;;13.40;99.90;;;;;;5072976;28;20020;-61
2022/05/07 01:36:53;;;;;;;21.48;7.05;;;13.40;99.90;;;;;;5072897;28;20097;-61
2022/05/07 01:39:19;;;;;;;18.13;5.97;;;13.40;99.90;;;;;;5072964;28;20025;-63
2022/05/07 01:41:44;;;;;;;17.33;6.30;;;13.40;99.90;;;;;;5072821;28;20031;-63
2022/05/07 01:44:10;;;;;;;18.20;6.10;;;13.40;99.90;;;;;;5072463;28;20516;-60
2022/05/07 01:49:20;;;;;;;18.17;6.43;;;13.40;99.90;;;;;;5072856;28;20035;-63
2022/05/07 01:51:45;;;;;;;18.80;6.50;;;13.40;99.90;;;;;;5054818;28;20385;-63
2022/05/07 01:54:11;;;;;;;18.95;6.80;;;13.30;99.90;;;;;;5050055;28;20025;-63
2022/05/07 01:56:36;;;;;;;20.48;7.03;;;13.30;99.90;;;;;;5051219;28;20013;-63
2022/05/07 01:59:02;;;;;;;19.65;6.45;;;13.30;99.90;;;;;;5050721;28;21118;-62
2022/05/07 02:01:27;;;;;;;23.88;7.20;;;13.30;99.90;;;;;;5050977;28;20500;-62
2022/05/07 02:03:53;;;;;;;19.00;6.60;;;13.20;99.90;;;;;;5051510;28;20029;-62
2022/05/07 02:06:19;;;;;;;16.15;5.72;;;13.20;99.90;;;;;;5052394;28;20033;-62
2022/05/07 02:08:44;;;;;;;22.05;6.85;;;13.20;99.90;;;;;;5051473;28;20028;-62
2022/05/07 02:11:10;;;;;;;22.30;7.18;;;13.20;99.90;;;;;;5052425;28;20029;-62
2022/05/07 02:13:35;;;;;;;19.60;6.72;;;13.20;99.90;;;;;;5052205;28;20031;-63
2022/05/07 02:16:01;;;;;;;21.58;6.85;;;13.10;99.90;;;;;;5051275;28;20127;-62
2022/05/07 02:18:27;;;;;;;20.42;7.38;;;13.10;99.90;;;;;;5052548;28;20457;-62
2022/05/07 02:20:56;;;;;;;21.73;7.75;;;13.10;99.90;;;;;;5051455;28;20029;-62
2022/05/07 02:23:22;;;;;;;22.05;7.28;;;13.10;99.90;;;;;;5052497;28;20355;-61
2022/05/07 02:25:47;;;;;;;20.25;7.10;;;13.10;99.90;;;;;;5052072;28;20488;-62
2022/05/07 02:28:14;;;;;;;22.10;8.15;;;13.00;99.90;;;;;;5052346;28;20053;-62
2022/05/07 02:30:40;;;;;;;22.75;8.57;;;13.00;99.90;;;;;;5052830;28;20105;-62
2022/05/07 02:33:05;;;;;;;23.35;8.38;;;13.00;99.90;;;;;;5052350;28;20500;-64
2022/05/07 02:35:31;;;;;;;23.70;8.02;;;13.00;99.90;;;;;;5052401;28;20025;-62
2022/05/07 02:37:58;;;;;;;26.80;8.98;;;13.00;99.90;;;;;;5052244;28;20081;-61
2022/05/07 02:40:23;;;;;;;27.17;8.73;;;13.00;99.90;;;;;;5052255;28;20013;-63
2022/05/07 02:42:49;;;;;;;23.80;7.95;;;13.00;99.90;;;;;;5052304;28;20028;-62
2022/05/07 02:45:15;;;;;;;26.77;8.35;;;13.00;99.90;;;;;;5052432;28;20090;-62
2022/05/07 02:47:42;;;;;;;24.70;9.25;;;13.00;99.90;;;;;;5051911;28;20025;-63
2022/05/07 02:50:10;;;;;;;25.92;8.73;;;12.90;99.90;;;;;;5052259;28;20032;-62
2022/05/07 02:52:36;;;;;;;29.13;9.88;;;13.00;99.90;;;;;;5052400;28;20048;-63
2022/05/07 02:55:05;;;;;;;26.42;9.02;;;13.00;99.90;;;;;;5052234;28;20021;-63
2022/05/07 02:57:30;;;;;;;29.52;11.20;;;13.00;99.90;;;;;;5050983;28;20022;-62
2022/05/07 02:59:56;;;;;;;29.85;10.25;;;13.00;99.90;;;;;;5051933;28;20032;-62
2022/05/07 03:02:23;;;;;;;28.35;10.75;;;13.00;99.90;;;;;;5052314;28;20064;-62
2022/05/07 03:04:50;;;;;;;26.30;10.77;;;13.00;99.90;;;;;;5051957;28;20021;-62
2022/05/07 03:07:16;;;;;;;26.77;10.40;;;13.00;99.90;;;;;;5051828;28;20406;-62
2022/05/07 03:09:42;;;;;;;31.73;11.43;;;13.00;99.90;;;;;;5052061;28;20099;-62
2022/05/07 03:12:09;;;;;;;26.73;10.23;;;13.00;99.90;;;;;;5054456;28;20029;-62
2022/05/07 03:14:35;;;;;;;31.83;11.50;;;13.00;99.90;;;;;;5056042;28;20017;-62
2022/05/07 03:17:01;;;;;;;32.42;11.75;;;13.10;99.90;;;;;;5056038;28;20443;-62
2022/05/07 03:19:27;;;;;;;27.60;11.18;;;13.10;99.90;;;;;;5055655;28;20021;-62
2022/05/07 03:21:53;;;;;;;32.17;12.25;;;13.10;99.90;;;;;;5055646;28;20017;-62
2022/05/07 03:24:18;;;;;;;31.40;12.25;;;13.10;99.90;;;;;;5055601;28;20051;-63
2022/05/07 03:26:44;;;;;;;30.25;11.68;;;13.10;99.90;;;;;;5055814;28;20021;-62
2022/05/07 03:29:10;;;;;;;31.02;12.57;;;13.20;99.90;;;;;;5055557;28;20056;-62
2022/05/07 03:31:37;;;;;;;30.80;12.43;;;13.20;99.90;;;;;;5055472;28;20032;-62
2022/05/07 03:34:02;;;;;;;37.05;13.05;;;13.20;99.90;;;;;;5055769;28;20025;-62
2022/05/07 03:36:28;;;;;;;34.60;13.05;;;13.20;99.90;;;;;;5055411;28;20070;-62
2022/05/07 03:38:53;;;;;;;37.65;13.27;;;13.30;99.90;;;;;;5055557;28;20096;-62
2022/05/07 03:41:19;;;;;;;34.38;13.02;;;13.20;99.90;;;;;;5054121;28;20372;-63
2022/05/07 03:43:45;;;;;;;32.20;12.98;;;13.30;99.90;;;;;;5055425;28;20021;-62
2022/05/07 03:46:11;;;;;;;34.72;14.27;;;13.30;99.90;;;;;;5055346;28;20021;-63
2022/05/07 03:48:36;;;;;;;37.53;14.60;;;13.30;99.90;;;;;;5055022;28;20040;-62
2022/05/07 03:51:02;;;;;;;34.10;14.18;;;13.30;99.90;;;;;;5055061;28;20090;-62
2022/05/07 03:53:30;;;;;;;34.78;14.82;;;13.20;99.90;;;;;;5055206;28;20025;-62
2022/05/07 03:56:07;;;;;;;32.10;14.77;;;13.20;99.90;;;;;;5055194;28;20529;-62
2022/05/07 03:58:34;;;;;;;35.15;15.30;;;13.20;99.90;;;;;;5050808;28;20111;-63
2022/05/07 04:01:00;;;;;;;35.92;14.95;;;13.20;99.90;;;;;;5054145;28;20036;-63
2022/05/07 04:03:27;;;;;;;39.97;15.05;;;13.20;99.90;;;;;;5054922;28;20025;-63
2022/05/07 04:05:52;;;;;;;35.65;15.13;;;13.20;99.90;;;;;;5054723;28;20021;-62
2022/05/07 04:08:18;;;;;;;36.70;15.30;;;13.20;99.90;;;;;;5054676;28;20032;-62
2022/05/07 04:10:44;;;;;;;35.33;16.52;;;13.20;99.90;;;;;;5054701;28;20112;-62
2022/05/07 04:13:11;;;;;;;41.92;19.10;;;13.20;99.90;;;;;;5054610;28;20048;-62
2022/05/07 04:15:37;;;;;;;42.08;16.92;;;13.20;99.90;;;;;;5054765;28;20024;-63
2022/05/07 04:18:07;;;;;;;38.35;17.45;;;13.30;99.90;;;;;;5054304;28;20409;-62
2022/05/07 04:20:33;;;;;;;37.35;16.23;;;13.30;99.90;;;;;;5052554;28;20017;-62
2022/05/07 04:22:59;;;;;;;38.22;16.52;;;13.30;99.90;;;;;;5050607;28;20452;-62
2022/05/07 04:25:24;;;;;;;36.20;15.93;;;13.40;99.90;;;;;;5054491;28;20078;-62
2022/05/07 04:27:50;;;;;;;42.65;16.50;;;13.40;99.90;;;;;;5052922;28;20032;-63
2022/05/07 04:30:16;;;;;;;36.78;16.02;;;13.40;99.90;;;;;;5054357;28;20025;-63
2022/05/07 04:32:42;;;;;;;42.47;19.63;;;13.40;99.90;;;;;;5053957;28;20053;-63
2022/05/07 04:35:08;;;;;;;38.15;16.08;;;13.40;99.90;;;;;;5053840;28;20021;-63
2022/05/07 04:37:33;;;;;;;42.53;20.38;;;13.40;99.90;;;;;;5052538;28;20151;-62
2022/05/07 04:39:59;;;;;;;39.92;20.08;;;13.40;99.90;;;;;;5053376;28;20033;-63
2022/05/07 04:42:24;;;;;;;42.78;21.27;;;13.40;99.90;;;;;;5053987;28;20077;-62
2022/05/07 04:44:50;;;;;;;52.38;24.63;;;13.40;99.90;;;;;;5053871;28;20032;-63
2022/05/07 04:47:16;;;;;;;40.90;21.00;;;13.40;99.90;;;;;;5052649;28;20449;-62
2022/05/07 04:49:41;;;;;;;39.67;18.85;;;13.40;99.90;;;;;;5053051;28;20026;-62
2022/05/07 04:52:07;;;;;;;42.40;19.15;;;13.40;99.90;;;;;;5053321;28;20013;-62
2022/05/07 04:54:33;;;;;;;36.83;19.35;;;13.50;99.90;;;;;;5053143;28;20032;-63
2022/05/07 04:56:59;;;;;;;40.72;20.40;;;13.50;99.90;;;;;;5060301;28;20021;-62
2022/05/07 04:59:25;;;;;;;39.47;17.55;;;13.60;99.90;;;;;;5051785;28;20453;-62
2022/05/07 05:01:50;;;;;;;36.90;16.58;;;13.60;99.90;;;;;;5053188;28;20021;-62
2022/05/07 05:04:16;;;;;;;36.60;17.55;;;13.70;99.90;;;;;;5053437;28;20352;-62
2022/05/07 05:06:42;;;;;;;35.97;17.85;;;13.80;99.90;;;;;;5053319;28;20445;-62
2022/05/07 05:09:09;;;;;;;37.08;17.73;;;13.90;99.90;;;;;;5053127;28;20036;-62
2022/05/07 05:11:35;;;;;;;33.92;17.63;;;14.00;99.90;;;;;;5052949;28;20532;-62
2022/05/07 05:15:01;;;;;;;35.70;16.38;;;14.20;99.90;;;;;;5052996;28;20519;-62
2022/05/07 05:16:47;;;;;;;36.58;17.70;;;14.30;99.90;;;;;;5052392;28;20025;-62
2022/05/07 05:19:12;;;;;;;34.53;16.85;;;14.50;99.90;;;;;;5052008;28;20013;-62
2022/05/07 05:21:38;;;;;;;34.08;17.45;;;14.60;99.90;;;;;;5051774;28;20373;-62
2022/05/07 05:24:03;;;;;;;35.58;18.90;;;14.80;99.90;;;;;;5053368;28;20029;-63
2022/05/07 05:26:29;;;;;;;35.40;15.55;;;15.00;99.90;;;;;;5053353;28;20021;-62
2022/05/07 05:28:54;;;;;;;32.42;17.10;;;15.20;99.90;;;;;;5052947;28;20045;-63
2022/05/07 05:31:20;;;;;;;36.08;19.50;;;15.40;99.90;;;;;;5053164;28;20117;-63
2022/05/07 05:33:45;;;;;;;35.13;16.85;;;15.50;99.90;;;;;;5052233;28;20032;-63
2022/05/07 05:36:11;;;;;;;34.50;16.65;;;15.70;99.90;;;;;;5052004;28;20044;-62
2022/05/07 05:38:38;;;;;;;31.63;15.93;;;15.80;99.90;;;;;;5052977;28;20024;-62
2022/05/07 05:41:04;;;;;;;36.20;18.67;;;16.00;99.90;;;;;;5053066;28;20021;-63
2022/05/07 05:43:30;;;;;;;37.70;17.40;;;16.00;99.90;;;;;;5051476;28;20040;-63
2022/05/07 05:45:55;;;;;;;37.05;17.33;;;16.10;99.90;;;;;;5051663;28;20473;-63
2022/05/07 05:48:21;;;;;;;32.47;16.85;;;16.10;99.90;;;;;;5052767;28;20063;-63
2022/05/07 05:50:46;;;;;;;32.65;17.38;;;16.10;99.90;;;;;;5052068;28;20458;-63
2022/05/07 05:53:12;;;;;;;36.17;16.42;;;16.10;99.90;;;;;;5053137;28;20055;-63
2022/05/07 05:55:37;;;;;;;36.75;18.92;;;16.10;99.90;;;;;;5052452;28;20047;-62
2022/05/07 05:58:03;;;;;;;38.58;18.13;;;16.20;99.90;;;;;;5052217;28;20029;-63
2022/05/07 06:00:28;;;;;;;34.38;17.42;;;16.30;99.90;;;;;;5051205;28;20366;-61
2022/05/07 06:02:54;;;;;;;35.97;18.52;;;16.40;99.90;;;;;;5052330;28;20461;-62
2022/05/07 06:05:19;;;;;;;34.53;17.92;;;16.60;99.90;;;;;;5050985;28;20027;-62
2022/05/07 06:07:45;;;;;;;33.30;16.65;;;16.70;99.90;;;;;;5050422;28;20037;-62
2022/05/07 06:10:11;;;;;;;29.42;15.98;;;16.80;99.90;;;;;;5052157;28;20120;-62
2022/05/07 06:12:36;;;;;;;36.03;16.80;;;16.90;99.90;;;;;;5052451;28;20095;-62
2022/05/07 06:15:02;;;;;;;30.75;15.55;;;17.00;99.90;;;;;;5052518;28;20059;-62
2022/05/07 06:17:27;;;;;;;34.13;15.68;;;17.10;99.90;;;;;;5052846;28;20063;-62
2022/05/07 06:19:53;;;;;;;30.40;16.55;;;17.10;99.90;;;;;;5047427;28;20024;-63
2022/05/07 06:22:19;;;;;;;31.45;16.00;;;17.20;99.90;;;;;;5051994;28;20491;-63
2022/05/07 06:27:28;;;;;;;31.83;15.98;;;17.40;99.90;;;;;;5052205;28;20067;-62
2022/05/07 06:30:12;;;;;;;29.95;16.45;;;17.50;99.90;;;;;;5052297;28;20072;-63
2022/05/07 06:32:42;;;;;;;30.23;15.07;;;17.60;99.90;;;;;;5052521;28;20108;-62
2022/05/07 06:35:09;;;;;;;31.00;16.58;;;17.70;99.90;;;;;;5052353;28;20055;-62
2022/05/07 06:37:37;;;;;;;35.25;15.77;;;17.80;99.90;;;;;;5052221;28;20017;-63
2022/05/07 06:40:07;;;;;;;28.95;15.38;;;17.90;99.90;;;;;;5052305;28;20465;-63
2022/05/07 06:42:34;;;;;;;30.38;15.10;;;18.20;99.90;;;;;;5052416;28;20017;-63
2022/05/07 06:45:00;;;;;;;26.73;15.48;;;18.50;99.90;;;;;;5053338;28;20021;-63
2022/05/07 06:47:26;;;;;;;34.40;15.23;;;18.70;99.90;;;;;;5055350;28;20036;-63
2022/05/07 06:49:52;;;;;;;32.67;16.77;;;19.00;99.90;;;;;;5056138;28;20062;-63
2022/05/07 06:52:18;;;;;;;27.80;15.32;;;19.30;99.90;;;;;;5056106;28;20036;-63
2022/05/07 06:54:44;;;;;;;29.42;16.00;;;19.40;99.90;;;;;;5056261;28;20048;-63
2022/05/07 06:57:09;;;;;;;32.25;15.40;;;19.50;99.90;;;;;;5056265;28;20059;-63
2022/05/07 06:59:36;;;;;;;28.88;16.42;;;19.50;99.90;;;;;;5054803;28;20429;-62
2022/05/07 07:02:02;;;;;;;27.52;16.27;;;19.40;99.90;;;;;;5056015;28;20421;-63
2022/05/07 07:04:28;;;;;;;30.70;15.93;;;19.30;99.90;;;;;;5055214;28;20028;-63
2022/05/07 07:06:54;;;;;;;31.35;16.35;;;19.30;99.90;;;;;;5055435;28;20032;-63
2022/05/07 07:09:20;;;;;;;31.05;15.68;;;19.30;99.90;;;;;;5055848;28;20041;-63
2022/05/07 07:11:45;;;;;;;29.27;15.77;;;19.40;99.90;;;;;;5056037;28;20017;-63
2022/05/07 07:14:12;;;;;;;28.90;15.88;;;19.50;99.90;;;;;;5054369;28;20025;-63
2022/05/07 07:16:37;;;;;;;32.17;15.63;;;19.60;99.90;;;;;;5056091;28;20090;-63
2022/05/07 07:19:04;;;;;;;28.55;14.63;;;19.80;99.90;;;;;;5055936;28;20460;-63
2022/05/07 07:21:29;;;;;;;28.98;15.50;;;20.10;99.90;;;;;;5055887;28;20346;-63
2022/05/07 07:23:55;;;;;;;30.85;14.13;;;20.60;99.90;;;;;;5050907;28;20030;-63
2022/05/07 07:26:20;;;;;;;27.13;15.40;;;21.10;99.90;;;;;;5035758;28;20033;-63
2022/05/07 07:28:47;;;;;;;28.83;14.73;;;21.70;99.90;;;;;;5034078;28;20057;-62
2022/05/07 07:31:13;;;;;;;30.67;16.17;;;22.20;99.90;;;;;;5035758;28;20095;-63
2022/05/07 07:33:39;;;;;;;31.92;16.08;;;22.40;99.90;;;;;;5035345;28;20206;-62
2022/05/07 07:36:09;;;;;;;31.17;15.73;;;22.50;99.90;;;;;;5046216;28;20021;-62
2022/05/07 07:38:37;;;;;;;29.92;15.18;;;22.60;99.60;;;;;;5055533;28;20488;-66
2022/05/07 07:41:03;;;;;;;28.48;14.80;;;22.70;98.90;;;;;;5055221;28;20364;-61
2022/05/07 07:43:29;;;;;;;30.02;15.20;;;22.80;98.90;;;;;;5055369;28;20469;-61
2022/05/07 07:48:40;;;;;;;26.38;14.75;;;23.20;98.50;;;;;;5054860;28;20430;-63
2022/05/07 07:51:08;;;;;;;28.08;15.23;;;23.50;98.20;;;;;;5055547;28;20472;-61
2022/05/07 07:53:36;;;;;;;27.85;15.13;;;23.80;97.40;;;;;;5055431;28;20060;-61
2022/05/07 07:56:03;;;;;;;27.08;15.32;;;23.90;97.30;;;;;;5055333;28;20024;-62
2022/05/07 07:58:28;;;;;;;26.35;14.35;;;23.90;97.20;;;;;;5054125;28;20027;-62
2022/05/07 08:00:54;;;;;;;27.25;14.05;;;23.80;97.10;;;;;;5055146;28;20021;-62
2022/05/07 08:03:20;;;;;;;31.95;17.58;;;23.80;97.00;;;;;;5054339;28;20112;-62
2022/05/07 08:05:48;;;;;;;31.42;15.80;;;23.90;97.10;;;;;;5055083;28;20088;-62
2022/05/07 08:13:45;;;;;;;30.42;15.27;;;24.30;95.80;;;;;;5054510;28;20158;-62
2022/05/07 08:16:13;;;;;;;28.63;14.90;;;24.60;95.90;;;;;;5054674;28;20029;-62
2022/05/07 08:18:41;;;;;;;30.75;16.13;;;24.90;95.10;;;;;;5054947;28;20042;-62
2022/05/07 08:21:08;;;;;;;29.25;15.43;;;25.20;95.00;;;;;;5054861;28;20374;-63
2022/05/07 08:23:34;;;;;;;29.42;15.77;;;25.60;94.30;;;;;;5054950;28;20027;-62
2022/05/07 08:26:02;;;;;;;28.52;14.75;;;25.90;93.70;;;;;;5054340;28;20440;-62
2022/05/07 08:28:29;;;;;;;28.63;15.00;;;26.30;93.50;;;;;;5054240;28;20052;-62
2022/05/07 08:30:54;;;;;;;29.60;14.60;;;26.50;92.50;;;;;;5054435;28;20368;-62
2022/05/07 08:33:21;;;;;;;27.63;15.65;;;26.60;92.30;;;;;;5053850;28;20465;-65
2022/05/07 08:35:47;;;;;;;29.60;15.93;;;26.70;92.20;;;;;;5054488;28;20025;-64
2022/05/07 08:38:13;;;;;;;27.60;14.35;;;26.80;92.20;;;;;;5054083;28;20166;-62
2022/05/07 08:40:41;;;;;;;26.75;14.52;;;26.90;91.80;;;;;;5053730;28;20459;-65
2022/05/07 08:43:07;;;;;;;29.45;14.57;;;27.30;91.50;;;;;;5054425;28;20017;-62
2022/05/07 08:45:35;;;;;;;28.10;15.88;;;28.20;90.50;;;;;;5053226;28;20119;-65
2022/05/07 08:48:00;;;;;;;27.98;16.42;;;29.00;88.80;;;;;;5054392;28;20027;-65
2022/05/07 08:50:26;;;;;;;26.17;14.95;;;29.60;87.00;;;;;;5054131;28;20033;-65
2022/05/07 08:52:55;;;;;;;25.60;14.82;;;30.40;84.90;;;;;;5053011;28;20334;-64
2022/05/07 08:55:22;;;;;;;29.65;14.77;;;30.70;82.60;;;;;;5052322;28;20025;-65
2022/05/07 08:57:50;;;;;;;26.58;14.73;;;30.70;80.60;;;;;;5053918;28;20029;-63
2022/05/07 09:00:20;;;;;;;25.10;13.32;;;30.50;80.80;;;;;;5052507;28;20024;-64
2022/05/07 09:02:49;;;;;;;23.85;13.60;;;30.80;79.50;;;;;;5053781;28;20029;-64
2022/05/07 09:05:18;;;;;;;22.35;12.13;;;31.30;78.20;;;;;;5053966;28;20028;-65
2022/05/07 09:07:54;;;;;;;28.98;13.15;;;31.50;75.60;;;;;;5053259;28;20070;-63
2022/05/07 09:10:20;;;;;;;24.85;13.38;;;31.30;75.90;;;;;;5051729;28;20187;-63
2022/05/07 09:12:46;;;;;;;21.42;12.38;;;31.60;74.80;;;;;;5053798;28;20455;-62
2022/05/07 09:15:11;;;;;;;23.50;12.48;;;31.50;74.90;;;;;;5053630;28;20025;-62
2022/05/07 09:17:37;;;;;;;22.80;14.02;;;31.40;74.10;;;;;;5053682;28;20099;-63
2022/05/07 09:20:18;;;;;;;23.55;13.75;;;31.20;74.00;;;;;;5052290;28;20061;-63
2022/05/07 09:22:55;;;;;;;27.65;14.43;;;31.10;75.20;;;;;;5053771;28;20036;-62
2022/05/07 09:25:27;;;;;;;26.90;14.63;;;31.50;74.50;;;;;;5052098;28;20033;-63
2022/05/07 09:27:56;;;;;;;23.48;13.35;;;31.80;73.60;;;;;;5053141;28;20025;-63
2022/05/07 09:30:27;;;;;;;22.30;13.23;;;32.30;72.70;;;;;;5052934;28;20358;-63
2022/05/07 09:32:54;;;;;;;25.98;13.63;;;32.70;71.90;;;;;;5051622;28;20393;-63
2022/05/07 09:38:08;;;;;;;22.88;12.48;;;33.10;70.60;;;;;;5052893;28;20036;-63
2022/05/07 09:40:38;;;;;;;23.20;12.07;;;33.70;69.50;;;;;;5053254;28;20365;-63
2022/05/07 09:43:05;;;;;;;22.73;11.93;;;34.20;68.40;;;;;;5053037;28;20013;-63
2022/05/07 09:45:31;;;;;;;22.52;12.45;;;34.40;66.90;;;;;;5053229;28;20032;-63
2022/05/07 09:48:00;;;;;;;22.92;12.82;;;34.50;66.30;;;;;;5053248;28;20024;-63
2022/05/07 09:58:39;;;;;;;18.17;10.40;;;35.20;63.70;;;;;;5052864;28;20492;-63
2022/05/07 10:01:24;;;;;;;21.58;11.10;;;35.10;63.60;;;;;;5053126;28;20028;-63
2022/05/07 10:04:28;;;;;;;20.38;10.27;;;35.20;63.00;;;;;;5052851;28;20018;-63
2022/05/07 10:07:38;;;;;;;21.67;12.18;;;35.00;63.00;;;;;;5052502;28;20379;-61
2022/05/07 10:10:16;;;;;;;20.70;11.15;;;35.20;62.20;;;;;;5033097;28;20056;-63
2022/05/07 10:12:46;;;;;;;23.35;12.45;;;35.30;62.00;;;;;;5052638;28;20026;-63
2022/05/07 10:15:15;;;;;;;21.67;13.13;;;35.30;61.50;;;;;;5051470;28;20033;-65
2022/05/07 10:17:43;;;;;;;23.10;13.05;;;35.40;61.40;;;;;;5052672;28;20027;-64
2022/05/07 10:20:10;;;;;;;25.40;12.63;;;35.10;61.10;;;;;;5051631;28;20020;-62
2022/05/07 10:22:36;;;;;;;22.38;13.48;;;34.90;61.30;;;;;;5069875;28;20016;-63
2022/05/07 10:25:12;;;;;;;22.17;12.50;;;34.90;60.60;;;;;;5052109;28;20345;-64
2022/05/07 10:27:44;;;;;;;23.25;13.35;;;34.90;60.20;;;;;;5059711;28;20025;-63
2022/05/07 10:30:21;;;;;;;22.77;12.65;;;34.10;61.10;;;;;;5072098;28;20501;-63
2022/05/07 10:32:58;;;;;;;22.85;12.40;;;33.50;61.70;;;;;;5072497;28;20055;-65
2022/05/07 10:35:48;;;;;;;24.70;12.80;;;32.70;62.80;;;;;;5071230;28;20023;-65
2022/05/07 10:38:23;;;;;;;24.17;13.60;;;32.70;63.80;;;;;;5049546;28;20079;-63
2022/05/07 10:41:04;;;;;;;23.50;13.40;;;33.20;62.70;;;;;;5052712;28;20025;-63
2022/05/07 10:43:44;;;;;;;27.40;13.90;;;33.50;62.80;;;;;;5051121;28;20406;-65
2022/05/07 10:46:12;;;;;;;26.02;14.00;;;33.80;62.20;;;;;;5052308;28;20115;-64
2022/05/07 10:48:48;;;;;;;24.50;14.57;;;34.10;61.50;;;;;;5052378;28;20021;-66
2022/05/07 10:51:31;;;;;;;24.33;13.68;;;34.50;61.00;;;;;;5052264;28;20017;-65
2022/05/07 10:54:00;;;;;;;24.42;13.88;;;34.60;60.70;;;;;;5064936;28;20028;-64
2022/05/07 10:56:26;;;;;;;22.85;13.40;;;34.60;60.00;;;;;;5072559;28;20024;-61
2022/05/07 10:58:57;;;;;;;21.52;13.00;;;34.60;60.10;;;;;;5072540;28;20020;-63
2022/05/07 11:01:26;;;;;;;21.35;12.85;;;34.60;59.90;;;;;;5071981;28;20024;-61
2022/05/07 11:04:08;;;;;;;21.02;12.10;;;34.80;59.40;;;;;;5072078;28;20024;-61
2022/05/07 11:06:40;;;;;;;23.05;12.93;;;34.90;59.20;;;;;;5071752;28;20020;-64
2022/05/07 11:09:07;;;;;;;21.63;13.45;;;34.90;58.90;;;;;;5072332;28;20082;-65
2022/05/07 11:11:44;;;;;;;24.90;14.00;;;34.80;58.70;;;;;;5072383;28;20017;-65
2022/05/07 11:14:10;;;;;;;22.30;14.02;;;34.90;58.70;;;;;;5072389;28;20085;-64
2022/05/07 11:16:46;;;;;;;21.83;13.38;;;34.80;58.80;;;;;;5069343;28;20016;-63
2022/05/07 11:19:25;;;;;;;24.35;12.60;;;34.70;58.60;;;;;;5055621;28;20051;-62
2022/05/07 11:21:52;;;;;;;21.35;12.65;;;34.60;58.60;;;;;;5071027;28;20085;-62
2022/05/07 11:24:20;;;;;;;22.13;12.60;;;34.60;58.60;;;;;;5072118;28;20044;-62
2022/05/07 11:26:52;;;;;;;22.10;12.43;;;34.70;58.40;;;;;;5069589;28;20028;-62
2022/05/07 11:29:19;;;;;;;25.35;14.48;;;34.60;57.90;;;;;;5052010;28;20477;-62
2022/05/07 11:32:04;;;;;;;24.85;14.73;;;34.30;58.30;;;;;;5052078;28;20029;-62
2022/05/07 11:34:38;;;;;;;25.92;15.10;;;34.10;58.60;;;;;;5055900;28;20029;-62
2022/05/07 11:37:23;;;;;;;24.90;14.60;;;34.30;58.80;;;;;;5054290;28;20021;-62
2022/05/07 11:39:57;;;;;;;23.67;12.93;;;34.50;58.70;;;;;;5055419;28;20442;-63
2022/05/07 11:42:34;;;;;;;22.85;13.32;;;34.60;58.50;;;;;;5055529;28;20036;-63
2022/05/07 11:47:59;;;;;;;27.95;14.38;;;34.90;58.00;;;;;;5048530;28;20499;-64
2022/05/07 11:50:51;;;;;;;24.38;13.80;;;35.10;57.80;;;;;;5054786;28;20051;-65
2022/05/07 11:53:21;;;;;;;26.75;15.65;;;35.20;57.90;;;;;;5052981;28;20029;-62
2022/05/07 11:55:48;;;;;;;23.45;13.20;;;35.30;57.70;;;;;;5055343;28;20052;-61
2022/05/07 11:58:21;;;;;;;23.52;13.35;;;35.20;57.80;;;;;;5055209;28;20021;-62
2022/05/07 12:00:49;;;;;;;27.50;14.27;;;35.20;57.50;;;;;;5053616;28;20048;-65
2022/05/07 12:03:19;;;;;;;26.40;14.02;;;35.10;57.60;;;;;;5054482;28;20396;-64
2022/05/07 12:05:50;;;;;;;27.20;14.07;;;35.10;57.80;;;;;;5055237;28;20017;-63
2022/05/07 12:08:20;;;;;;;25.10;12.60;;;35.20;57.60;;;;;;5055100;28;20568;-65
2022/05/07 12:10:48;;;;;;;24.02;13.52;;;35.10;57.50;;;;;;5054984;28;20124;-65
2022/05/07 12:13:15;;;;;;;24.83;14.23;;;34.90;57.70;;;;;;5054719;28;20021;-62
2022/05/07 12:18:25;;;;;;;28.02;14.07;;;33.60;58.50;;;;;;5054831;28;20067;-62
2022/05/07 12:20:52;;;;;;;23.05;12.80;;;33.30;58.80;;;;;;5053579;28;20033;-66
2022/05/07 12:31:31;;;;;;;23.58;11.18;;;33.10;59.20;;;;;;5053597;28;20130;-64
2022/05/07 12:33:56;;;;;;;21.38;11.38;;;33.00;59.50;;;;;;5054114;28;20052;-62
2022/05/07 12:36:22;;;;;;;22.50;11.70;;;33.00;59.40;;;;;;5053944;28;20023;-63
2022/05/07 12:38:47;;;;;;;20.65;10.50;;;32.80;59.50;;;;;;5052057;28;20035;-65
2022/05/07 12:41:13;;;;;;;21.45;11.60;;;32.60;60.00;;;;;;5057214;28;20449;-63
2022/05/07 12:43:39;;;;;;;20.40;11.35;;;32.40;60.10;;;;;;5058382;28;20063;-66
2022/05/07 12:46:04;;;;;;;22.13;11.63;;;32.10;60.50;;;;;;5071992;28;20074;-62
2022/05/07 12:48:30;;;;;;;20.08;10.52;;;31.70;60.90;;;;;;5070902;28;20047;-63
2022/05/07 12:50:56;;;;;;;21.65;11.48;;;31.10;61.50;;;;;;5052673;28;20423;-62
2022/05/07 12:53:22;;;;;;;20.45;10.95;;;30.30;62.80;;;;;;5054083;28;20451;-62
2022/05/07 12:55:48;;;;;;;22.33;10.63;;;29.90;63.40;;;;;;5052461;28;20116;-62
2022/05/07 12:58:14;;;;;;;19.70;9.52;;;29.90;63.20;;;;;;5066486;28;20020;-62
2022/05/07 13:00:41;;;;;;;17.85;9.07;;;29.60;63.50;;;;;;5074163;28;20029;-62
2022/05/07 13:03:08;;;;;;;20.92;10.25;;;29.40;63.90;;;;;;5073939;28;20028;-62
2022/05/07 13:05:34;;;;;;;19.67;9.23;;;28.80;64.70;;;;;;5073838;28;20024;-62
2022/05/07 13:08:01;;;;;;;20.20;9.88;;;28.40;65.30;;;;;;5074179;28;20467;-62
2022/05/07 13:10:28;;;;;;;14.13;6.65;;;27.50;66.20;;;;;;5073859;28;20123;-62
2022/05/07 13:12:53;;;;;;;20.58;8.77;;;27.00;66.40;;;;;;5072368;28;20401;-62
2022/05/07 13:15:19;;;;;;;16.20;8.32;;;26.40;67.80;;;;;;5060633;28;20056;-61
2022/05/07 13:17:44;;;;;;;17.92;8.30;;;25.80;69.30;;;;;;5052590;28;20075;-61